sensor_id;sensor_type;location;lat;lon;timestamp;temperature;humidity
33825;DHT22;20127;48.962;8.342;2023-06-14T00:02:21;14.80;67.70
33825;DHT22;20127;48.962;8.342;2023-06-14T00:05:24;14.80;68.60
33825;DHT22;20127;48.962;8.342;2023-06-14T00:08:26;14.70;68.10
33825;DHT22;20127;48.962;8.342;2023-06-14T00:11:28;14.50;68.70
33825;DHT22;20127;48.962;8.342;2023-06-14T00:14:31;14.40;69.00
33825;DHT22;20127;48.962;8.342;2023-06-14T00:17:32;14.30;69.30
33825;DHT22;20127;48.962;8.342;2023-06-14T00:20:35;14.30;69.90
33825;DHT22;20127;48.962;8.342;2023-06-14T00:23:37;14.30;69.80
33825;DHT22;20127;48.962;8.342;2023-06-14T00:26:39;14.40;70.10
33825;DHT22;20127;48.962;8.342;2023-06-14T00:29:41;14.40;69.80
33825;DHT22;20127;48.962;8.342;2023-06-14T00:32:43;14.30;70.20
33825;DHT22;20127;48.962;8.342;2023-06-14T00:35:46;14.20;70.60
33825;DHT22;20127;48.962;8.342;2023-06-14T00:38:48;14.20;70.90
33825;DHT22;20127;48.962;8.342;2023-06-14T00:41:50;14.20;71.10
33825;DHT22;20127;48.962;8.342;2023-06-14T00:44:52;14.30;71.20
33825;DHT22;20127;48.962;8.342;2023-06-14T00:47:54;14.30;71.30
33825;DHT22;20127;48.962;8.342;2023-06-14T00:50:57;14.40;71.50
33825;DHT22;20127;48.962;8.342;2023-06-14T00:53:59;14.40;71.30
33825;DHT22;20127;48.962;8.342;2023-06-14T00:57:01;14.50;71.20
33825;DHT22;20127;48.962;8.342;2023-06-14T01:00:03;14.50;71.10
33825;DHT22;20127;48.962;8.342;2023-06-14T01:03:05;14.60;70.90
33825;DHT22;20127;48.962;8.342;2023-06-14T01:06:15;14.60;70.80
33825;DHT22;20127;48.962;8.342;2023-06-14T01:09:31;14.60;70.70
33825;DHT22;20127;48.962;8.342;2023-06-14T01:12:41;14.60;70.70
33825;DHT22;20127;48.962;8.342;2023-06-14T01:15:47;14.60;70.70
33825;DHT22;20127;48.962;8.342;2023-06-14T01:18:49;14.70;70.30
33825;DHT22;20127;48.962;8.342;2023-06-14T01:21:55;14.80;70.10
33825;DHT22;20127;48.962;8.342;2023-06-14T01:24:58;14.80;70.20
33825;DHT22;20127;48.962;8.342;2023-06-14T01:28:02;14.80;69.90
33825;DHT22;20127;48.962;8.342;2023-06-14T01:31:04;14.80;69.90
33825;DHT22;20127;48.962;8.342;2023-06-14T01:34:06;14.90;70.10
33825;DHT22;20127;48.962;8.342;2023-06-14T01:37:08;14.90;70.10
33825;DHT22;20127;48.962;8.342;2023-06-14T01:40:12;14.90;70.20
33825;DHT22;20127;48.962;8.342;2023-06-14T01:43:16;14.90;70.90
33825;DHT22;20127;48.962;8.342;2023-06-14T01:46:18;14.90;70.20
33825;DHT22;20127;48.962;8.342;2023-06-14T01:49:20;14.80;70.30
33825;DHT22;20127;48.962;8.342;2023-06-14T01:52:22;14.80;70.20
33825;DHT22;20127;48.962;8.342;2023-06-14T01:55:26;14.80;70.40
33825;DHT22;20127;48.962;8.342;2023-06-14T01:58:27;14.80;70.50
33825;DHT22;20127;48.962;8.342;2023-06-14T02:01:29;14.70;71.20
33825;DHT22;20127;48.962;8.342;2023-06-14T02:04:31;14.60;70.80
33825;DHT22;20127;48.962;8.342;2023-06-14T02:07:32;14.40;71.10
33825;DHT22;20127;48.962;8.342;2023-06-14T02:10:36;14.40;71.50
33825;DHT22;20127;48.962;8.342;2023-06-14T02:13:38;14.30;71.80
33825;DHT22;20127;48.962;8.342;2023-06-14T02:16:39;14.20;71.90
33825;DHT22;20127;48.962;8.342;2023-06-14T02:19:49;14.10;72.20
33825;DHT22;20127;48.962;8.342;2023-06-14T02:22:50;14.00;72.50
33825;DHT22;20127;48.962;8.342;2023-06-14T02:25:53;14.00;72.90
33825;DHT22;20127;48.962;8.342;2023-06-14T02:28:55;13.90;72.90
33825;DHT22;20127;48.962;8.342;2023-06-14T02:31:57;13.70;73.40
33825;DHT22;20127;48.962;8.342;2023-06-14T02:34:59;13.70;73.60
33825;DHT22;20127;48.962;8.342;2023-06-14T02:38:00;13.80;74.20
33825;DHT22;20127;48.962;8.342;2023-06-14T02:41:03;14.20;73.80
33825;DHT22;20127;48.962;8.342;2023-06-14T02:44:06;14.40;72.80
33825;DHT22;20127;48.962;8.342;2023-06-14T02:47:08;14.60;72.50
33825;DHT22;20127;48.962;8.342;2023-06-14T02:50:09;14.70;71.80
33825;DHT22;20127;48.962;8.342;2023-06-14T02:53:11;14.70;71.80
33825;DHT22;20127;48.962;8.342;2023-06-14T02:56:14;14.70;71.70
33825;DHT22;20127;48.962;8.342;2023-06-14T02:59:17;14.80;71.50
33825;DHT22;20127;48.962;8.342;2023-06-14T03:02:19;14.90;71.10
33825;DHT22;20127;48.962;8.342;2023-06-14T03:05:21;14.90;70.90
33825;DHT22;20127;48.962;8.342;2023-06-14T03:08:24;14.90;70.90
33825;DHT22;20127;48.962;8.342;2023-06-14T03:11:28;14.90;70.70
33825;DHT22;20127;48.962;8.342;2023-06-14T03:14:31;14.90;70.60
33825;DHT22;20127;48.962;8.342;2023-06-14T03:17:33;14.90;70.60
33825;DHT22;20127;48.962;8.342;2023-06-14T03:20:35;14.90;70.60
33825;DHT22;20127;48.962;8.342;2023-06-14T03:23:37;14.90;70.50
33825;DHT22;20127;48.962;8.342;2023-06-14T03:26:40;14.80;70.60
33825;DHT22;20127;48.962;8.342;2023-06-14T03:29:42;14.80;70.80
33825;DHT22;20127;48.962;8.342;2023-06-14T03:32:43;14.80;71.00
33825;DHT22;20127;48.962;8.342;2023-06-14T03:35:45;14.80;70.80
33825;DHT22;20127;48.962;8.342;2023-06-14T03:38:47;14.80;71.00
33825;DHT22;20127;48.962;8.342;2023-06-14T03:41:50;14.90;70.90
33825;DHT22;20127;48.962;8.342;2023-06-14T03:44:51;15.00;70.80
33825;DHT22;20127;48.962;8.342;2023-06-14T03:47:53;15.00;70.70
33825;DHT22;20127;48.962;8.342;2023-06-14T03:50:55;15.00;71.10
33825;DHT22;20127;48.962;8.342;2023-06-14T03:53:57;15.20;71.00
33825;DHT22;20127;48.962;8.342;2023-06-14T03:57:00;15.30;70.90
33825;DHT22;20127;48.962;8.342;2023-06-14T04:00:02;15.40;71.00
33825;DHT22;20127;48.962;8.342;2023-06-14T04:03:06;15.40;71.30
33825;DHT22;20127;48.962;8.342;2023-06-14T04:06:08;15.40;71.30
33825;DHT22;20127;48.962;8.342;2023-06-14T04:09:10;15.40;71.30
33825;DHT22;20127;48.962;8.342;2023-06-14T04:12:13;15.40;71.80
33825;DHT22;20127;48.962;8.342;2023-06-14T04:15:14;15.50;72.20
33825;DHT22;20127;48.962;8.342;2023-06-14T04:18:16;15.80;72.90
33825;DHT22;20127;48.962;8.342;2023-06-14T04:21:19;16.40;72.10
33825;DHT22;20127;48.962;8.342;2023-06-14T04:24:21;17.10;70.90
33825;DHT22;20127;48.962;8.342;2023-06-14T04:27:26;17.70;69.10
33825;DHT22;20127;48.962;8.342;2023-06-14T04:30:29;18.10;67.60
33825;DHT22;20127;48.962;8.342;2023-06-14T04:33:31;18.30;67.40
33825;DHT22;20127;48.962;8.342;2023-06-14T04:36:33;18.70;67.00
33825;DHT22;20127;48.962;8.342;2023-06-14T04:39:37;19.30;65.40
33825;DHT22;20127;48.962;8.342;2023-06-14T04:42:40;20.00;63.90
33825;DHT22;20127;48.962;8.342;2023-06-14T04:45:45;20.50;62.50
33825;DHT22;20127;48.962;8.342;2023-06-14T04:48:47;21.20;61.50
33825;DHT22;20127;48.962;8.342;2023-06-14T04:51:50;21.80;60.40
33825;DHT22;20127;48.962;8.342;2023-06-14T04:54:57;22.40;59.10
33825;DHT22;20127;48.962;8.342;2023-06-14T04:58:00;23.00;57.80
33825;DHT22;20127;48.962;8.342;2023-06-14T05:01:02;23.70;56.20
33825;DHT22;20127;48.962;8.342;2023-06-14T05:04:04;24.50;54.40
33825;DHT22;20127;48.962;8.342;2023-06-14T05:07:06;25.30;52.50
33825;DHT22;20127;48.962;8.342;2023-06-14T05:10:09;25.90;51.50
33825;DHT22;20127;48.962;8.342;2023-06-14T05:13:12;26.10;50.40
33825;DHT22;20127;48.962;8.342;2023-06-14T05:16:14;26.00;48.50
33825;DHT22;20127;48.962;8.342;2023-06-14T05:19:17;25.70;48.60
33825;DHT22;20127;48.962;8.342;2023-06-14T05:22:19;25.60;48.50
33825;DHT22;20127;48.962;8.342;2023-06-14T05:25:21;25.80;47.60
33825;DHT22;20127;48.962;8.342;2023-06-14T05:28:24;25.70;47.10
33825;DHT22;20127;48.962;8.342;2023-06-14T05:31:26;25.80;46.90
33825;DHT22;20127;48.962;8.342;2023-06-14T05:34:28;25.70;46.10
33825;DHT22;20127;48.962;8.342;2023-06-14T05:37:30;25.70;46.20
33825;DHT22;20127;48.962;8.342;2023-06-14T05:40:32;25.90;46.10
33825;DHT22;20127;48.962;8.342;2023-06-14T05:43:35;26.30;45.60
33825;DHT22;20127;48.962;8.342;2023-06-14T05:46:36;26.50;45.10
33825;DHT22;20127;48.962;8.342;2023-06-14T05:49:40;26.30;44.90
33825;DHT22;20127;48.962;8.342;2023-06-14T05:52:42;26.50;44.80
33825;DHT22;20127;48.962;8.342;2023-06-14T05:55:43;26.80;44.30
33825;DHT22;20127;48.962;8.342;2023-06-14T05:58:46;27.10;43.60
33825;DHT22;20127;48.962;8.342;2023-06-14T06:01:48;27.10;43.40
33825;DHT22;20127;48.962;8.342;2023-06-14T06:04:50;27.00;43.20
33825;DHT22;20127;48.962;8.342;2023-06-14T06:07:52;26.80;43.30
33825;DHT22;20127;48.962;8.342;2023-06-14T06:10:53;27.00;43.00
33825;DHT22;20127;48.962;8.342;2023-06-14T06:13:57;26.70;42.90
33825;DHT22;20127;48.962;8.342;2023-06-14T06:16:58;26.50;43.30
33825;DHT22;20127;48.962;8.342;2023-06-14T06:20:00;26.30;43.50
33825;DHT22;20127;48.962;8.342;2023-06-14T06:23:02;26.00;44.00
33825;DHT22;20127;48.962;8.342;2023-06-14T06:26:04;26.00;44.50
33825;DHT22;20127;48.962;8.342;2023-06-14T06:29:08;26.30;44.50
33825;DHT22;20127;48.962;8.342;2023-06-14T06:32:09;26.40;44.10
33825;DHT22;20127;48.962;8.342;2023-06-14T06:35:11;26.50;44.00
33825;DHT22;20127;48.962;8.342;2023-06-14T06:38:13;26.40;44.10
33825;DHT22;20127;48.962;8.342;2023-06-14T06:41:15;26.50;44.40
33825;DHT22;20127;48.962;8.342;2023-06-14T06:44:18;26.70;44.10
33825;DHT22;20127;48.962;8.342;2023-06-14T06:47:20;27.00;44.20
33825;DHT22;20127;48.962;8.342;2023-06-14T06:50:22;27.60;43.90
33825;DHT22;20127;48.962;8.342;2023-06-14T06:53:25;28.00;42.90
33825;DHT22;20127;48.962;8.342;2023-06-14T06:56:27;27.80;42.60
33825;DHT22;20127;48.962;8.342;2023-06-14T06:59:30;27.90;42.70
33825;DHT22;20127;48.962;8.342;2023-06-14T07:02:32;28.10;42.40
33825;DHT22;20127;48.962;8.342;2023-06-14T07:05:33;28.20;42.60
33825;DHT22;20127;48.962;8.342;2023-06-14T07:08:35;28.30;42.20
33825;DHT22;20127;48.962;8.342;2023-06-14T07:11:39;28.30;42.20
33825;DHT22;20127;48.962;8.342;2023-06-14T07:14:42;28.50;41.80
33825;DHT22;20127;48.962;8.342;2023-06-14T07:17:43;28.20;42.00
33825;DHT22;20127;48.962;8.342;2023-06-14T07:20:45;28.00;42.30
33825;DHT22;20127;48.962;8.342;2023-06-14T07:23:48;28.10;42.50
33825;DHT22;20127;48.962;8.342;2023-06-14T07:26:49;28.50;42.60
33825;DHT22;20127;48.962;8.342;2023-06-14T07:29:53;29.10;41.90
33825;DHT22;20127;48.962;8.342;2023-06-14T07:32:54;29.40;41.50
33825;DHT22;20127;48.962;8.342;2023-06-14T07:35:56;29.20;41.10
33825;DHT22;20127;48.962;8.342;2023-06-14T07:38:58;29.00;41.20
33825;DHT22;20127;48.962;8.342;2023-06-14T07:41:59;28.80;41.00
33825;DHT22;20127;48.962;8.342;2023-06-14T07:45:03;28.70;41.00
33825;DHT22;20127;48.962;8.342;2023-06-14T07:48:05;28.70;41.30
33825;DHT22;20127;48.962;8.342;2023-06-14T07:51:07;28.90;41.40
33825;DHT22;20127;48.962;8.342;2023-06-14T07:54:09;29.20;41.30
33825;DHT22;20127;48.962;8.342;2023-06-14T07:57:10;29.30;40.40
33825;DHT22;20127;48.962;8.342;2023-06-14T08:00:14;29.20;40.70
33825;DHT22;20127;48.962;8.342;2023-06-14T08:03:18;29.30;40.50
33825;DHT22;20127;48.962;8.342;2023-06-14T08:06:20;29.20;40.40
33825;DHT22;20127;48.962;8.342;2023-06-14T08:09:21;29.00;40.70
33825;DHT22;20127;48.962;8.342;2023-06-14T08:12:24;29.40;40.70
33825;DHT22;20127;48.962;8.342;2023-06-14T08:15:27;29.40;40.40
33825;DHT22;20127;48.962;8.342;2023-06-14T08:18:29;29.60;40.30
33825;DHT22;20127;48.962;8.342;2023-06-14T08:21:31;29.60;40.30
33825;DHT22;20127;48.962;8.342;2023-06-14T08:24:33;29.90;40.00
33825;DHT22;20127;48.962;8.342;2023-06-14T08:27:36;29.80;39.90
33825;DHT22;20127;48.962;8.342;2023-06-14T08:30:39;29.50;40.20
33825;DHT22;20127;48.962;8.342;2023-06-14T08:33:43;29.10;40.20
33825;DHT22;20127;48.962;8.342;2023-06-14T08:36:44;28.70;40.90
33825;DHT22;20127;48.962;8.342;2023-06-14T08:39:46;28.70;40.90
33825;DHT22;20127;48.962;8.342;2023-06-14T08:42:50;28.70;41.00
33825;DHT22;20127;48.962;8.342;2023-06-14T08:45:58;28.90;40.70
33825;DHT22;20127;48.962;8.342;2023-06-14T08:49:01;28.80;40.60
33825;DHT22;20127;48.962;8.342;2023-06-14T08:52:05;28.70;40.40
33825;DHT22;20127;48.962;8.342;2023-06-14T08:55:11;28.50;40.30
33825;DHT22;20127;48.962;8.342;2023-06-14T08:58:14;27.90;40.70
33825;DHT22;20127;48.962;8.342;2023-06-14T09:01:17;27.40;41.30
33825;DHT22;20127;48.962;8.342;2023-06-14T09:04:19;27.20;41.60
33825;DHT22;20127;48.962;8.342;2023-06-14T09:07:22;26.90;41.90
33825;DHT22;20127;48.962;8.342;2023-06-14T09:10:25;26.80;42.60
33825;DHT22;20127;48.962;8.342;2023-06-14T09:13:27;27.30;42.70
33825;DHT22;20127;48.962;8.342;2023-06-14T09:16:32;27.80;42.10
33825;DHT22;20127;48.962;8.342;2023-06-14T09:19:34;28.10;41.70
33825;DHT22;20127;48.962;8.342;2023-06-14T09:22:37;28.20;41.70
33825;DHT22;20127;48.962;8.342;2023-06-14T09:25:43;28.10;41.40
33825;DHT22;20127;48.962;8.342;2023-06-14T09:28:46;28.10;41.60
33825;DHT22;20127;48.962;8.342;2023-06-14T09:31:50;27.80;41.70
33825;DHT22;20127;48.962;8.342;2023-06-14T09:34:52;27.40;41.90
33825;DHT22;20127;48.962;8.342;2023-06-14T09:37:55;27.20;42.50
33825;DHT22;20127;48.962;8.342;2023-06-14T09:40:58;27.10;42.50
33825;DHT22;20127;48.962;8.342;2023-06-14T09:44:00;26.90;42.60
33825;DHT22;20127;48.962;8.342;2023-06-14T09:47:05;26.80;42.50
33825;DHT22;20127;48.962;8.342;2023-06-14T09:50:07;26.50;42.50
33825;DHT22;20127;48.962;8.342;2023-06-14T09:53:11;26.30;42.80
33825;DHT22;20127;48.962;8.342;2023-06-14T09:56:13;26.40;42.60
33825;DHT22;20127;48.962;8.342;2023-06-14T09:59:19;26.40;42.60
33825;DHT22;20127;48.962;8.342;2023-06-14T10:02:26;26.60;42.50
33825;DHT22;20127;48.962;8.342;2023-06-14T10:05:28;27.00;42.30
33825;DHT22;20127;48.962;8.342;2023-06-14T10:08:30;27.10;42.00
33825;DHT22;20127;48.962;8.342;2023-06-14T10:11:35;27.20;41.80
33825;DHT22;20127;48.962;8.342;2023-06-14T10:14:37;27.30;42.00
33825;DHT22;20127;48.962;8.342;2023-06-14T10:17:46;27.30;41.50
33825;DHT22;20127;48.962;8.342;2023-06-14T10:20:55;27.30;41.10
33825;DHT22;20127;48.962;8.342;2023-06-14T10:24:04;27.40;40.50
33825;DHT22;20127;48.962;8.342;2023-06-14T10:27:07;27.40;41.20
33825;DHT22;20127;48.962;8.342;2023-06-14T10:30:11;27.60;40.70
33825;DHT22;20127;48.962;8.342;2023-06-14T10:33:17;27.70;40.30
33825;DHT22;20127;48.962;8.342;2023-06-14T10:36:25;27.80;40.40
33825;DHT22;20127;48.962;8.342;2023-06-14T10:39:32;28.20;40.60
33825;DHT22;20127;48.962;8.342;2023-06-14T10:42:34;28.60;40.20
33825;DHT22;20127;48.962;8.342;2023-06-14T10:45:35;28.80;40.20
33825;DHT22;20127;48.962;8.342;2023-06-14T10:48:41;28.90;39.60
33825;DHT22;20127;48.962;8.342;2023-06-14T10:51:46;28.90;39.30
33825;DHT22;20127;48.962;8.342;2023-06-14T10:55:01;29.00;39.60
33825;DHT22;20127;48.962;8.342;2023-06-14T10:58:04;29.00;39.00
33825;DHT22;20127;48.962;8.342;2023-06-14T11:01:06;28.60;39.30
33825;DHT22;20127;48.962;8.342;2023-06-14T11:04:10;28.80;39.10
33825;DHT22;20127;48.962;8.342;2023-06-14T11:07:28;29.20;38.60
33825;DHT22;20127;48.962;8.342;2023-06-14T11:10:37;29.50;38.70
33825;DHT22;20127;48.962;8.342;2023-06-14T11:13:41;29.50;37.80
33825;DHT22;20127;48.962;8.342;2023-06-14T11:16:48;29.70;38.00
33825;DHT22;20127;48.962;8.342;2023-06-14T11:20:07;29.70;37.40
33825;DHT22;20127;48.962;8.342;2023-06-14T11:23:09;29.40;38.00
33825;DHT22;20127;48.962;8.342;2023-06-14T11:26:11;29.90;38.10
33825;DHT22;20127;48.962;8.342;2023-06-14T11:29:14;30.40;38.30
33825;DHT22;20127;48.962;8.342;2023-06-14T11:32:16;30.90;37.10
33825;DHT22;20127;48.962;8.342;2023-06-14T11:35:21;31.30;36.70
33825;DHT22;20127;48.962;8.342;2023-06-14T11:38:24;31.90;36.40
33825;DHT22;20127;48.962;8.342;2023-06-14T11:41:31;32.30;35.90
33825;DHT22;20127;48.962;8.342;2023-06-14T11:44:33;32.20;35.90
33825;DHT22;20127;48.962;8.342;2023-06-14T11:47:35;31.70;36.60
33825;DHT22;20127;48.962;8.342;2023-06-14T11:50:39;31.70;36.90
33825;DHT22;20127;48.962;8.342;2023-06-14T11:53:42;31.90;36.60
33825;DHT22;20127;48.962;8.342;2023-06-14T11:56:44;31.80;36.60
33825;DHT22;20127;48.962;8.342;2023-06-14T11:59:46;31.90;36.80
33825;DHT22;20127;48.962;8.342;2023-06-14T12:02:55;32.00;36.40
33825;DHT22;20127;48.962;8.342;2023-06-14T12:06:07;31.80;36.30
33825;DHT22;20127;48.962;8.342;2023-06-14T12:09:09;31.40;36.90
33825;DHT22;20127;48.962;8.342;2023-06-14T12:12:13;31.00;37.10
33825;DHT22;20127;48.962;8.342;2023-06-14T12:15:16;31.10;37.30
33825;DHT22;20127;48.962;8.342;2023-06-14T12:18:18;31.60;37.00
33825;DHT22;20127;48.962;8.342;2023-06-14T12:21:23;32.00;36.40
33825;DHT22;20127;48.962;8.342;2023-06-14T12:24:28;31.80;36.20
33825;DHT22;20127;48.962;8.342;2023-06-14T12:27:30;31.90;36.30
33825;DHT22;20127;48.962;8.342;2023-06-14T12:30:32;31.50;36.70
33825;DHT22;20127;48.962;8.342;2023-06-14T12:33:33;31.20;36.90
33825;DHT22;20127;48.962;8.342;2023-06-14T12:36:37;30.80;37.80
33825;DHT22;20127;48.962;8.342;2023-06-14T12:39:42;30.60;37.20
33825;DHT22;20127;48.962;8.342;2023-06-14T12:42:45;30.20;37.40
33825;DHT22;20127;48.962;8.342;2023-06-14T12:45:47;30.50;37.40
33825;DHT22;20127;48.962;8.342;2023-06-14T12:48:49;31.00;37.10
33825;DHT22;20127;48.962;8.342;2023-06-14T12:51:52;31.60;36.80
33825;DHT22;20127;48.962;8.342;2023-06-14T12:54:54;31.70;35.70
33825;DHT22;20127;48.962;8.342;2023-06-14T12:57:55;31.60;35.50
33825;DHT22;20127;48.962;8.342;2023-06-14T13:00:57;31.70;35.50
33825;DHT22;20127;48.962;8.342;2023-06-14T13:03:59;32.20;35.30
33825;DHT22;20127;48.962;8.342;2023-06-14T13:07:02;32.60;34.90
33825;DHT22;20127;48.962;8.342;2023-06-14T13:10:04;32.00;34.60
33825;DHT22;20127;48.962;8.342;2023-06-14T13:13:06;31.70;35.00
33825;DHT22;20127;48.962;8.342;2023-06-14T13:16:08;31.90;35.30
33825;DHT22;20127;48.962;8.342;2023-06-14T13:19:11;32.30;35.00
33825;DHT22;20127;48.962;8.342;2023-06-14T13:22:14;32.30;34.90
33825;DHT22;20127;48.962;8.342;2023-06-14T13:25:16;32.50;35.10
33825;DHT22;20127;48.962;8.342;2023-06-14T13:28:17;32.30;35.00
33825;DHT22;20127;48.962;8.342;2023-06-14T13:31:19;31.80;35.50
33825;DHT22;20127;48.962;8.342;2023-06-14T13:34:21;31.80;35.60
33825;DHT22;20127;48.962;8.342;2023-06-14T13:37:24;31.50;35.40
33825;DHT22;20127;48.962;8.342;2023-06-14T13:40:25;31.30;35.60
33825;DHT22;20127;48.962;8.342;2023-06-14T13:43:27;31.50;35.80
33825;DHT22;20127;48.962;8.342;2023-06-14T13:46:29;31.90;35.80
33825;DHT22;20127;48.962;8.342;2023-06-14T13:49:31;32.10;35.10
33825;DHT22;20127;48.962;8.342;2023-06-14T13:52:36;31.70;34.90
33825;DHT22;20127;48.962;8.342;2023-06-14T13:55:38;31.40;35.40
33825;DHT22;20127;48.962;8.342;2023-06-14T13:58:40;31.40;35.40
33825;DHT22;20127;48.962;8.342;2023-06-14T14:01:42;31.70;35.30
33825;DHT22;20127;48.962;8.342;2023-06-14T14:04:43;32.00;35.20
33825;DHT22;20127;48.962;8.342;2023-06-14T14:07:46;32.10;35.00
33825;DHT22;20127;48.962;8.342;2023-06-14T14:10:48;32.20;34.50
33825;DHT22;20127;48.962;8.342;2023-06-14T14:13:50;32.00;34.30
33825;DHT22;20127;48.962;8.342;2023-06-14T14:16:51;31.90;34.30
33825;DHT22;20127;48.962;8.342;2023-06-14T14:19:53;31.80;34.30
33825;DHT22;20127;48.962;8.342;2023-06-14T14:22:57;31.80;34.10
33825;DHT22;20127;48.962;8.342;2023-06-14T14:25:58;31.30;34.50
33825;DHT22;20127;48.962;8.342;2023-06-14T14:29:01;31.10;34.80
33825;DHT22;20127;48.962;8.342;2023-06-14T14:32:03;31.30;35.30
33825;DHT22;20127;48.962;8.342;2023-06-14T14:35:06;31.50;35.20
33825;DHT22;20127;48.962;8.342;2023-06-14T14:38:10;32.00;34.70
33825;DHT22;20127;48.962;8.342;2023-06-14T14:41:11;31.90;34.20
33825;DHT22;20127;48.962;8.342;2023-06-14T14:44:13;31.60;34.30
33825;DHT22;20127;48.962;8.342;2023-06-14T14:47:15;31.60;34.60
33825;DHT22;20127;48.962;8.342;2023-06-14T14:50:16;31.90;34.40
33825;DHT22;20127;48.962;8.342;2023-06-14T14:53:19;32.20;34.10
33825;DHT22;20127;48.962;8.342;2023-06-14T14:56:22;32.10;33.80
33825;DHT22;20127;48.962;8.342;2023-06-14T14:59:24;31.60;34.20
33825;DHT22;20127;48.962;8.342;2023-06-14T15:02:25;31.50;34.40
33825;DHT22;20127;48.962;8.342;2023-06-14T15:05:27;31.90;34.10
33825;DHT22;20127;48.962;8.342;2023-06-14T15:08:54;32.10;33.40
33825;DHT22;20127;48.962;8.342;2023-06-14T15:32:39;30.60;33.90
33825;DHT22;20127;48.962;8.342;2023-06-14T16:36:48;29.10;35.90
33825;DHT22;20127;48.962;8.342;2023-06-14T16:39:50;28.70;35.80
33825;DHT22;20127;48.962;8.342;2023-06-14T16:42:51;28.40;36.20
33825;DHT22;20127;48.962;8.342;2023-06-14T16:45:53;28.30;36.50
33825;DHT22;20127;48.962;8.342;2023-06-14T16:48:55;28.20;36.80
33825;DHT22;20127;48.962;8.342;2023-06-14T16:51:58;28.00;37.20
33825;DHT22;20127;48.962;8.342;2023-06-14T16:55:00;28.00;37.50
33825;DHT22;20127;48.962;8.342;2023-06-14T16:58:01;27.80;37.70
33825;DHT22;20127;48.962;8.342;2023-06-14T17:01:03;27.70;38.10
33825;DHT22;20127;48.962;8.342;2023-06-14T17:04:05;27.60;38.30
33825;DHT22;20127;48.962;8.342;2023-06-14T17:07:08;27.70;38.20
33825;DHT22;20127;48.962;8.342;2023-06-14T17:10:10;27.50;38.00
33825;DHT22;20127;48.962;8.342;2023-06-14T17:13:12;27.20;38.00
33825;DHT22;20127;48.962;8.342;2023-06-14T17:16:14;26.90;38.30
33825;DHT22;20127;48.962;8.342;2023-06-14T17:19:15;26.80;38.60
33825;DHT22;20127;48.962;8.342;2023-06-14T17:22:18;26.50;38.80
33825;DHT22;20127;48.962;8.342;2023-06-14T17:25:20;26.30;39.10
33825;DHT22;20127;48.962;8.342;2023-06-14T17:28:22;26.20;39.20
33825;DHT22;20127;48.962;8.342;2023-06-14T17:31:24;26.00;39.40
33825;DHT22;20127;48.962;8.342;2023-06-14T17:34:25;25.90;39.70
33825;DHT22;20127;48.962;8.342;2023-06-14T17:37:28;25.70;40.20
33825;DHT22;20127;48.962;8.342;2023-06-14T17:40:30;25.70;40.60
33825;DHT22;20127;48.962;8.342;2023-06-14T17:43:32;25.60;40.70
33825;DHT22;20127;48.962;8.342;2023-06-14T17:46:35;25.40;40.90
33825;DHT22;20127;48.962;8.342;2023-06-14T17:49:36;25.20;41.30
33825;DHT22;20127;48.962;8.342;2023-06-14T17:52:39;25.10;41.50
33825;DHT22;20127;48.962;8.342;2023-06-14T17:55:41;25.00;41.80
33825;DHT22;20127;48.962;8.342;2023-06-14T17:58:43;24.80;42.10
33825;DHT22;20127;48.962;8.342;2023-06-14T18:01:45;24.70;42.40
33825;DHT22;20127;48.962;8.342;2023-06-14T18:04:46;24.60;43.00
33825;DHT22;20127;48.962;8.342;2023-06-14T18:07:49;24.50;43.40
33825;DHT22;20127;48.962;8.342;2023-06-14T18:10:51;24.50;43.80
33825;DHT22;20127;48.962;8.342;2023-06-14T18:13:53;24.40;44.00
33825;DHT22;20127;48.962;8.342;2023-06-14T18:16:55;24.30;44.20
33825;DHT22;20127;48.962;8.342;2023-06-14T18:19:56;24.20;44.40
33825;DHT22;20127;48.962;8.342;2023-06-14T18:22:59;24.20;44.60
33825;DHT22;20127;48.962;8.342;2023-06-14T18:26:01;24.10;44.80
33825;DHT22;20127;48.962;8.342;2023-06-14T18:29:03;24.00;44.90
33825;DHT22;20127;48.962;8.342;2023-06-14T18:32:05;24.00;45.10
33825;DHT22;20127;48.962;8.342;2023-06-14T18:35:07;23.90;45.40
33825;DHT22;20127;48.962;8.342;2023-06-14T18:38:10;23.90;45.70
33825;DHT22;20127;48.962;8.342;2023-06-14T18:41:12;23.80;46.00
33825;DHT22;20127;48.962;8.342;2023-06-14T18:44:14;23.70;46.00
33825;DHT22;20127;48.962;8.342;2023-06-14T18:47:16;23.60;46.20
33825;DHT22;20127;48.962;8.342;2023-06-14T18:50:17;23.50;46.40
33825;DHT22;20127;48.962;8.342;2023-06-14T18:53:21;23.50;46.40
33825;DHT22;20127;48.962;8.342;2023-06-14T18:56:23;23.40;46.50
33825;DHT22;20127;48.962;8.342;2023-06-14T18:59:25;23.30;46.60
33825;DHT22;20127;48.962;8.342;2023-06-14T19:02:26;23.20;46.50
33825;DHT22;20127;48.962;8.342;2023-06-14T19:05:28;23.10;46.50
33825;DHT22;20127;48.962;8.342;2023-06-14T19:08:31;23.10;46.60
33825;DHT22;20127;48.962;8.342;2023-06-14T19:11:33;23.00;46.80
33825;DHT22;20127;48.962;8.342;2023-06-14T19:14:35;23.00;46.90
33825;DHT22;20127;48.962;8.342;2023-06-14T19:17:37;22.90;47.00
33825;DHT22;20127;48.962;8.342;2023-06-14T19:20:38;22.80;47.20
33825;DHT22;20127;48.962;8.342;2023-06-14T19:23:42;22.70;47.40
33825;DHT22;20127;48.962;8.342;2023-06-14T19:26:44;22.60;47.50
33825;DHT22;20127;48.962;8.342;2023-06-14T19:29:45;22.50;47.70
33825;DHT22;20127;48.962;8.342;2023-06-14T19:32:47;22.40;48.00
33825;DHT22;20127;48.962;8.342;2023-06-14T19:35:51;22.40;48.40
33825;DHT22;20127;48.962;8.342;2023-06-14T19:38:55;22.30;48.60
33825;DHT22;20127;48.962;8.342;2023-06-14T19:41:57;22.20;48.90
33825;DHT22;20127;48.962;8.342;2023-06-14T19:44:58;22.00;49.30
33825;DHT22;20127;48.962;8.342;2023-06-14T19:48:00;21.90;49.70
33825;DHT22;20127;48.962;8.342;2023-06-14T19:51:02;21.80;50.30
33825;DHT22;20127;48.962;8.342;2023-06-14T19:54:05;21.60;51.00
33825;DHT22;20127;48.962;8.342;2023-06-14T19:57:07;21.50;51.60
33825;DHT22;20127;48.962;8.342;2023-06-14T20:00:09;21.40;52.20
33825;DHT22;20127;48.962;8.342;2023-06-14T20:03:11;21.20;52.80
33825;DHT22;20127;48.962;8.342;2023-06-14T20:06:13;21.10;53.50
33825;DHT22;20127;48.962;8.342;2023-06-14T20:09:16;20.90;54.30
33825;DHT22;20127;48.962;8.342;2023-06-14T20:12:19;20.80;54.70
33825;DHT22;20127;48.962;8.342;2023-06-14T20:15:22;20.70;55.30
33825;DHT22;20127;48.962;8.342;2023-06-14T20:18:24;20.60;55.90
33825;DHT22;20127;48.962;8.342;2023-06-14T20:21:26;20.40;56.00
33825;DHT22;20127;48.962;8.342;2023-06-14T20:24:29;20.20;56.50
33825;DHT22;20127;48.962;8.342;2023-06-14T20:27:31;20.10;57.00
33825;DHT22;20127;48.962;8.342;2023-06-14T20:30:33;20.00;57.30
33825;DHT22;20127;48.962;8.342;2023-06-14T20:33:35;19.90;57.60
33825;DHT22;20127;48.962;8.342;2023-06-14T20:36:36;19.70;57.70